« 新潟分屯基地創設55周年記念行事1 新潟空港 2017/11/23 | トップページ | 筑波海軍航空隊記念館 笠間市 2017/11/27 mon »

2017/11/25

新潟分屯基地創設55周年記念行事2 新潟空港 2017/11/23

その1からつづき

20171123_rjsn_60ja463a

ANA1160 RJSN-RJOO JA463A DHC8-402Q

20171123_rjsn_61h784584

60さんが列線に運ばれました。

20171123_rjsn_62h784584

60系勢揃いです

20171123_rjsn_63ja302k

20171123_rjsn_64ja302k

ANA513 RJOO-RJSN JA302K B737-54K

20171123_rjsn_65ja211j

20171123_rjsn_66ja211j
JAL2872 RJCC-RJSN JA211J ERJ-170STD

20171123_rjsn_67u923010

機内展示は続いていますが、時間で打ち切りです

20171123_rjsn_68taiko

アトラクションは越後勢龍太鼓
RJSN 230200Z VRB05KT 4500 SHRA BR FEW006 SCT010 BKN015 09/09 Q1006

20171123_rjsn_69u923010

20171123_rjsn_70u923010

20171123_rjsn_71h984589

格納庫内では、これから関係者の記念撮影の模様です

20171123_rjsn_72ja249j

JAL2243 RJOO-RJSN JA249J ERJ-190STD

20171123_rjsn_73ja211j

JAL2871 RJSN-RJCC JA211J ERJ-170STD

20171123_rjsn_74hl8272

KAL RKSI-RJSN HL8272 B737-9B5ER

20171123_rjsn_75u923010

記念撮影が終わって、記念塗装機が外に・・

20171123_rjsn_76h984589

RJSN 230300Z 31011KT 6000 -SHRA FEW008 SCT015 BKN025 10/08 Q1005

20171123_rjsn_77h984589

20171123_rjsn_78u923010
20171123_rjsn_79u923010

20171123_rjsn_80u923010

曇天は冬の新潟らしいのかもしれません。

20171123_rjsn_81ja02fj

FDA373 RJNA-RJSN JA02FJ ERJ-170STD

20171123_rjsn_82ja302k_2

ANA1865 RJSN-ROAH JA302K B737-54K

20171123_rjsn_83h984589

これから塗装機がエンジンランナップ展示を行う予定です。

20171123_rjsn_84u923010

水色飛行機がそろいました

20171123_rjsn_85ja249j

JAL2242 RJSN-RJOO JA249J ERJ-190STD

20171123_rjsn_86niigatasb

このあたりで、離脱です。60周年は是非晴れを願いましょう。
RJSN 230324Z 31013KT 4000 -SHRA BR FEW008 SCT015 BKN025 10/08 Q1005 RMK 1CU008 4CU015 6CU025 A2969

11/25今日の梵 室屋さん、零戦小牧、けもフレ痛板飛行機、未練だ 小型機胸熱日、取残感

|

« 新潟分屯基地創設55周年記念行事1 新潟空港 2017/11/23 | トップページ | 筑波海軍航空隊記念館 笠間市 2017/11/27 mon »

新潟空港」カテゴリの記事

コメント

コメントを書く



(ウェブ上には掲載しません)


コメントは記事投稿者が公開するまで表示されません。



トラックバック


この記事へのトラックバック一覧です: 新潟分屯基地創設55周年記念行事2 新潟空港 2017/11/23:

« 新潟分屯基地創設55周年記念行事1 新潟空港 2017/11/23 | トップページ | 筑波海軍航空隊記念館 笠間市 2017/11/27 mon »